Time;durP1;ratioP1;P1;durP2;ratioP2;P2;SDS_P1;SDS_P2;PMS_P1;PMS_P2;Temp;Humidity;BMP_temperature;BMP_pressure;BME280_temperature;BME280_humidity;BME280_pressure;Samples;Min_cycle;Max_cycle;Signal;HPM_P1;HPM_P2
2022/02/06 00:02:00;;;;;;;;;;;21.40;25.80;;;;;;482182;246;2192;-59
2022/02/06 00:04:01;;;;;;;;;;;21.40;25.80;;;;;;482294;246;1134;-58
2022/02/06 00:06:03;;;;;;;;;;;21.40;25.80;;;;;;482248;246;1074;-58
2022/02/06 00:08:10;;;;;;;;;;;21.40;25.80;;;;;;482238;246;1417;-59
2022/02/06 00:10:06;;;;;;;;;;;21.40;25.80;;;;;;481890;247;1443;-59
2022/02/06 00:12:07;;;;;;;;;;;21.40;25.90;;;;;;482128;246;1217;-59
2022/02/06 00:14:09;;;;;;;;;;;21.30;25.80;;;;;;482215;246;1205;-59
2022/02/06 00:16:10;;;;;;;;;;;21.40;25.80;;;;;;482231;246;1325;-59
2022/02/06 00:18:11;;;;;;;;;;;21.40;25.80;;;;;;482323;246;1184;-59
2022/02/06 00:20:14;;;;;;;;;;;21.50;25.80;;;;;;482350;246;976;-59
2022/02/06 00:22:26;;;;;;;;;;;21.50;25.70;;;;;;482169;247;2500;-59
2022/02/06 00:24:23;;;;;;;;;;;21.50;25.70;;;;;;481521;247;1434;-59
2022/02/06 00:26:25;;;;;;;;;;;21.40;25.80;;;;;;481794;247;1458;-59
2022/02/06 00:28:22;;;;;;;;;;;21.50;25.80;;;;;;481744;247;1327;-59
2022/02/06 00:30:27;;;;;;;;;;;21.50;25.80;;;;;;482147;247;2552;-59
2022/02/06 00:32:29;;;;;;;;;;;21.50;25.70;;;;;;481898;247;1315;-60
2022/02/06 00:35:11;;;;;;;;;;;21.50;25.80;;;;;;482212;247;1358;-58
2022/02/06 00:39:08;;;;;;;;;;;21.50;25.70;;;;;;482306;247;1148;-60
2022/02/06 00:41:14;;;;;;;;;;;21.50;25.70;;;;;;482273;246;1324;-59
2022/02/06 00:43:14;;;;;;;;;;;21.50;25.70;;;;;;482274;246;2121;-59
2022/02/06 00:45:15;;;;;;;;;;;21.50;25.80;;;;;;482330;246;1136;-59
2022/02/06 00:47:17;;;;;;;;;;;21.40;25.70;;;;;;482183;246;1181;-58
2022/02/06 00:49:25;;;;;;;;;;;21.40;25.80;;;;;;482352;246;1173;-59
2022/02/06 00:51:27;;;;;;;;;;;21.40;25.80;;;;;;481747;247;1875;-60
2022/02/06 00:53:21;;;;;;;;;;;21.40;25.80;;;;;;481793;247;2182;-58
2022/02/06 00:55:24;;;;;;;;;;;21.40;25.70;;;;;;482340;246;974;-58
2022/02/06 00:57:24;;;;;;;;;;;21.40;25.70;;;;;;482133;246;1768;-59
2022/02/06 00:59:25;;;;;;;;;;;21.40;25.70;;;;;;482311;246;1828;-59
2022/02/06 01:01:26;;;;;;;;;;;21.50;25.60;;;;;;482223;246;1209;-59
2022/02/06 01:03:28;;;;;;;;;;;21.50;25.60;;;;;;482282;246;2188;-59
2022/02/06 01:05:29;;;;;;;;;;;21.50;25.70;;;;;;482249;246;1284;-59
2022/02/06 01:07:30;;;;;;;;;;;21.40;25.70;;;;;;482239;246;1148;-59
2022/02/06 01:09:32;;;;;;;;;;;21.40;25.80;;;;;;482383;246;1048;-58
2022/02/06 01:11:35;;;;;;;;;;;21.30;25.80;;;;;;482287;246;1261;-58
2022/02/06 01:13:44;;;;;;;;;;;21.30;25.90;;;;;;482249;247;1436;-59
2022/02/06 01:15:36;;;;;;;;;;;21.40;25.80;;;;;;481725;247;2059;-59
2022/02/06 01:17:41;;;;;;;;;;;21.40;25.80;;;;;;482238;246;1146;-59
2022/02/06 01:19:48;;;;;;;;;;;21.50;25.70;;;;;;482073;247;1940;-58
2022/02/06 01:21:48;;;;;;;;;;;21.50;25.70;;;;;;481608;243;1434;-59
2022/02/06 01:23:54;;;;;;;;;;;21.50;25.70;;;;;;482044;247;2184;-59
2022/02/06 01:25:54;;;;;;;;;;;21.60;25.70;;;;;;481743;240;1933;-58
2022/02/06 01:27:55;;;;;;;;;;;21.60;25.60;;;;;;481699;247;1391;-59
2022/02/06 01:29:56;;;;;;;;;;;21.50;25.60;;;;;;481848;247;1742;-59
2022/02/06 01:31:57;;;;;;;;;;;21.50;25.60;;;;;;481714;247;2227;-59
2022/02/06 01:33:58;;;;;;;;;;;21.50;25.80;;;;;;482105;247;1389;-59
2022/02/06 01:36:03;;;;;;;;;;;21.60;25.60;;;;;;482039;240;2175;-59
2022/02/06 01:38:09;;;;;;;;;;;21.60;25.60;;;;;;481850;247;1793;-59
2022/02/06 01:40:07;;;;;;;;;;;21.40;25.70;;;;;;481657;247;1412;-59
2022/02/06 01:42:06;;;;;;;;;;;21.40;25.80;;;;;;481969;247;1430;-59
2022/02/06 01:44:10;;;;;;;;;;;21.40;25.80;;;;;;482193;247;2266;-58
2022/02/06 01:46:20;;;;;;;;;;;21.50;25.70;;;;;;481944;247;1851;-59
2022/02/06 02:02:36;;;;;;;;;;;21.40;25.80;;;;;;482205;247;1209;-59
2022/02/06 02:04:35;;;;;;;;;;;21.40;25.80;;;;;;481372;247;1965;-58
2022/02/06 02:06:59;;;;;;;;;;;21.40;25.80;;;;;;481779;247;1803;-59
2022/02/06 02:11:43;;;;;;;;;;;21.40;25.80;;;;;;467266;247;1148;-59
2022/02/06 02:13:51;;;;;;;;;;;21.50;25.80;;;;;;481735;247;1337;-58
2022/02/06 02:16:17;;;;;;;;;;;21.40;25.80;;;;;;481730;247;1421;-58
2022/02/06 02:20:48;;;;;;;;;;;21.50;25.80;;;;;;482266;247;1018;-58
2022/02/06 02:23:01;;;;;;;;;;;21.40;25.80;;;;;;481539;247;2208;-59
2022/02/06 02:25:24;;;;;;;;;;;21.40;25.80;;;;;;481473;247;2218;-59
2022/02/06 02:27:22;;;;;;;;;;;21.50;25.80;;;;;;481300;247;1429;-58
2022/02/06 02:32:00;;;;;;;;;;;21.40;25.80;;;;;;481991;247;1644;-59
2022/02/06 02:44:10;;;;;;;;;;;21.50;25.80;;;;;;482225;247;2167;-59
2022/02/06 02:46:04;;;;;;;;;;;21.50;25.90;;;;;;480932;247;1150;-58
2022/02/06 02:48:01;;;;;;;;;;;21.40;25.90;;;;;;481426;247;1387;-59
2022/02/06 02:49:58;;;;;;;;;;;21.40;25.90;;;;;;481874;247;2420;-58
2022/02/06 02:52:02;;;;;;;;;;;21.40;25.90;;;;;;482053;247;1351;-59
2022/02/06 02:54:03;;;;;;;;;;;21.40;26.00;;;;;;481972;247;1346;-62
2022/02/06 02:56:11;;;;;;;;;;;21.40;26.00;;;;;;481936;247;1427;-59
2022/02/06 02:58:18;;;;;;;;;;;21.40;26.00;;;;;;481596;247;1272;-59
2022/02/06 03:00:19;;;;;;;;;;;21.40;26.00;;;;;;481340;247;1625;-59
2022/02/06 03:02:07;;;;;;;;;;;21.50;25.90;;;;;;481230;247;1605;-59
2022/02/06 03:04:07;;;;;;;;;;;21.40;25.90;;;;;;482246;246;2142;-58
2022/02/06 03:06:09;;;;;;;;;;;21.50;25.90;;;;;;482241;246;1204;-59
2022/02/06 03:08:10;;;;;;;;;;;21.50;25.90;;;;;;482235;246;1221;-59
2022/02/06 03:10:11;;;;;;;;;;;21.50;25.90;;;;;;482242;246;1301;-58
2022/02/06 03:12:14;;;;;;;;;;;21.50;25.90;;;;;;482182;246;1130;-59
2022/02/06 03:14:21;;;;;;;;;;;21.40;25.90;;;;;;482225;247;2222;-59
2022/02/06 03:16:23;;;;;;;;;;;21.30;26.00;;;;;;481772;247;1907;-59
2022/02/06 03:18:27;;;;;;;;;;;21.40;26.00;;;;;;482190;247;1752;-59
2022/02/06 03:20:23;;;;;;;;;;;21.40;26.00;;;;;;481959;247;2161;-62
2022/02/06 03:22:34;;;;;;;;;;;21.40;25.90;;;;;;482316;246;1117;-58
2022/02/06 03:24:28;;;;;;;;;;;21.40;26.00;;;;;;481689;247;2180;-58
2022/02/06 03:26:27;;;;;;;;;;;21.40;25.90;;;;;;482095;247;1768;-58
2022/02/06 03:28:28;;;;;;;;;;;21.50;25.90;;;;;;482285;246;1254;-59
2022/02/06 03:30:30;;;;;;;;;;;21.50;25.90;;;;;;482374;246;1071;-58
2022/02/06 03:32:31;;;;;;;;;;;21.50;25.80;;;;;;482234;246;1208;-59
2022/02/06 03:34:32;;;;;;;;;;;21.50;25.90;;;;;;482344;246;1061;-59
2022/02/06 03:36:34;;;;;;;;;;;21.40;25.90;;;;;;482278;246;1218;-59
2022/02/06 03:38:35;;;;;;;;;;;21.50;25.90;;;;;;482272;246;1328;-59
2022/02/06 03:40:41;;;;;;;;;;;21.40;26.00;;;;;;482246;246;970;-59
2022/02/06 03:42:53;;;;;;;;;;;21.50;26.00;;;;;;481921;247;2190;-59
2022/02/06 03:44:43;;;;;;;;;;;21.40;26.00;;;;;;481287;247;2126;-59
2022/02/06 03:46:51;;;;;;;;;;;21.50;26.00;;;;;;481992;244;1890;-59
2022/02/06 03:48:47;;;;;;;;;;;21.40;26.00;;;;;;481644;247;2368;-59
2022/02/06 03:50:49;;;;;;;;;;;21.50;26.00;;;;;;482085;247;1549;-58
2022/02/06 03:52:50;;;;;;;;;;;21.50;25.90;;;;;;482033;247;1601;-59
2022/02/06 03:54:49;;;;;;;;;;;21.50;25.90;;;;;;482133;246;1394;-58
2022/02/06 03:56:52;;;;;;;;;;;21.40;26.00;;;;;;482193;246;1113;-59
2022/02/06 03:58:52;;;;;;;;;;;21.40;26.00;;;;;;482259;247;1339;-58
2022/02/06 04:00:53;;;;;;;;;;;21.40;26.00;;;;;;482255;246;1181;-59
2022/02/06 04:02:55;;;;;;;;;;;21.40;26.00;;;;;;482252;246;1436;-59
2022/02/06 04:04:56;;;;;;;;;;;21.50;26.00;;;;;;482366;246;2241;-59
2022/02/06 04:07:04;;;;;;;;;;;21.40;26.00;;;;;;482222;246;1259;-59
2022/02/06 04:09:00;;;;;;;;;;;21.40;26.00;;;;;;481904;247;1372;-59
2022/02/06 04:11:04;;;;;;;;;;;21.40;26.00;;;;;;482191;246;1231;-59
2022/02/06 04:13:04;;;;;;;;;;;21.40;26.00;;;;;;482038;247;1199;-59
2022/02/06 04:15:07;;;;;;;;;;;21.50;26.00;;;;;;482217;247;2294;-59
2022/02/06 04:17:18;;;;;;;;;;;21.50;26.00;;;;;;481983;247;1443;-59
2022/02/06 04:19:16;;;;;;;;;;;21.40;26.00;;;;;;481444;247;1438;-59
2022/02/06 04:21:08;;;;;;;;;;;21.40;26.00;;;;;;481599;247;1848;-59
2022/02/06 04:23:09;;;;;;;;;;;21.40;26.10;;;;;;482183;246;2221;-59
2022/02/06 04:25:10;;;;;;;;;;;21.40;26.10;;;;;;482236;246;1185;-58
2022/02/06 04:27:12;;;;;;;;;;;21.50;26.00;;;;;;482220;246;1222;-59
2022/02/06 04:29:13;;;;;;;;;;;21.40;26.10;;;;;;482296;246;1046;-59
2022/02/06 04:31:14;;;;;;;;;;;21.50;26.00;;;;;;482215;246;1292;-59
2022/02/06 04:33:16;;;;;;;;;;;21.50;26.00;;;;;;482297;246;1042;-59
2022/02/06 04:35:19;;;;;;;;;;;21.40;26.00;;;;;;482348;246;1221;-59
2022/02/06 04:37:27;;;;;;;;;;;21.40;26.10;;;;;;482102;247;2441;-58
2022/02/06 04:39:40;;;;;;;;;;;21.40;26.00;;;;;;481740;247;1974;-59
2022/02/06 04:41:45;;;;;;;;;;;21.40;26.10;;;;;;481122;247;2185;-60
2022/02/06 04:43:57;;;;;;;;;;;21.40;26.10;;;;;;481422;247;2125;-59
2022/02/06 04:46:11;;;;;;;;;;;21.40;26.10;;;;;;481159;247;1591;-59
2022/02/06 04:48:31;;;;;;;;;;;21.40;26.10;;;;;;480888;247;1330;-58
2022/02/06 04:53:04;;;;;;;;;;;21.40;26.20;;;;;;482254;247;1253;-59
2022/02/06 04:55:18;;;;;;;;;;;21.40;26.20;;;;;;481233;247;2206;-59
2022/02/06 05:14:12;;;;;;;;;;;21.10;26.50;;;;;;458226;259;1087;-58
2022/02/06 05:16:06;;;;;;;;;;;21.00;26.50;;;;;;473217;247;1226;-58
2022/02/06 05:18:23;;;;;;;;;;;21.00;26.50;;;;;;481932;246;1706;-59
2022/02/06 05:22:51;;;;;;;;;;;21.00;26.60;;;;;;482548;246;1193;-58
2022/02/06 05:25:16;;;;;;;;;;;21.00;26.50;;;;;;482119;247;2440;-59
2022/02/06 05:27:15;;;;;;;;;;;21.00;26.50;;;;;;481492;247;2132;-59
2022/02/06 05:29:19;;;;;;;;;;;21.10;26.50;;;;;;482150;247;2112;-58
2022/02/06 05:31:12;;;;;;;;;;;21.00;26.50;;;;;;481918;246;1358;-59
2022/02/06 05:33:11;;;;;;;;;;;21.10;26.50;;;;;;482500;246;1368;-59
2022/02/06 05:35:12;;;;;;;;;;;21.10;26.50;;;;;;482736;246;948;-60
2022/02/06 05:37:13;;;;;;;;;;;21.10;26.50;;;;;;482580;246;1198;-59
2022/02/06 05:39:15;;;;;;;;;;;21.20;26.30;;;;;;482680;246;1054;-59
2022/02/06 05:41:16;;;;;;;;;;;21.10;26.40;;;;;;482646;246;1204;-59
2022/02/06 05:43:17;;;;;;;;;;;21.10;26.50;;;;;;482621;246;1186;-58
2022/02/06 05:45:20;;;;;;;;;;;21.10;26.50;;;;;;482643;246;2129;-58
2022/02/06 05:47:20;;;;;;;;;;;21.20;26.40;;;;;;482487;247;2293;-58
2022/02/06 05:49:21;;;;;;;;;;;21.20;26.40;;;;;;482769;246;959;-59
2022/02/06 05:51:22;;;;;;;;;;;21.30;26.30;;;;;;482660;246;1380;-58
2022/02/06 05:53:24;;;;;;;;;;;21.30;26.30;;;;;;482723;246;973;-59
2022/02/06 05:55:25;;;;;;;;;;;21.20;26.40;;;;;;482714;246;1455;-59
2022/02/06 05:57:26;;;;;;;;;;;21.20;26.30;;;;;;482743;246;1164;-59
2022/02/06 05:59:28;;;;;;;;;;;21.30;26.30;;;;;;482621;246;1144;-59
2022/02/06 06:01:29;;;;;;;;;;;21.40;26.20;;;;;;482574;246;1436;-58
2022/02/06 06:03:30;;;;;;;;;;;21.40;26.20;;;;;;482695;246;1146;-58
2022/02/06 06:05:32;;;;;;;;;;;21.30;26.30;;;;;;482721;246;2113;-59
2022/02/06 06:07:33;;;;;;;;;;;21.30;26.30;;;;;;482666;246;1170;-59
2022/02/06 06:09:34;;;;;;;;;;;21.40;26.20;;;;;;482657;246;957;-59
2022/02/06 06:11:36;;;;;;;;;;;21.40;26.20;;;;;;482615;246;1169;-58
2022/02/06 06:13:37;;;;;;;;;;;21.40;26.20;;;;;;482798;246;1031;-59
2022/02/06 06:15:38;;;;;;;;;;;21.50;26.10;;;;;;482750;246;1262;-59
2022/02/06 06:17:40;;;;;;;;;;;21.50;26.10;;;;;;482621;246;1180;-59
2022/02/06 06:19:44;;;;;;;;;;;21.50;26.00;;;;;;482683;246;1107;-59
2022/02/06 06:21:46;;;;;;;;;;;21.50;26.00;;;;;;482446;247;2244;-59
2022/02/06 06:23:44;;;;;;;;;;;21.60;26.00;;;;;;482538;246;2129;-59
2022/02/06 06:25:49;;;;;;;;;;;21.60;26.00;;;;;;482689;246;1226;-59
2022/02/06 06:27:46;;;;;;;;;;;21.60;26.00;;;;;;482362;247;1576;-58
2022/02/06 06:29:48;;;;;;;;;;;21.60;26.00;;;;;;482598;246;982;-59
2022/02/06 06:31:49;;;;;;;;;;;21.60;26.00;;;;;;482529;246;1199;-59
2022/02/06 06:33:50;;;;;;;;;;;21.70;25.90;;;;;;482701;246;1241;-59
2022/02/06 06:35:53;;;;;;;;;;;21.60;26.00;;;;;;482696;246;2713;-59
2022/02/06 06:37:53;;;;;;;;;;;21.60;25.90;;;;;;482678;246;2500;-59
2022/02/06 06:39:54;;;;;;;;;;;21.60;25.90;;;;;;482709;246;1105;-59
2022/02/06 06:41:56;;;;;;;;;;;21.60;25.90;;;;;;482658;246;1263;-59
2022/02/06 06:43:57;;;;;;;;;;;21.60;25.90;;;;;;482651;246;2192;-58
2022/02/06 06:45:58;;;;;;;;;;;21.60;25.80;;;;;;482661;246;1327;-59
2022/02/06 06:48:00;;;;;;;;;;;21.60;25.90;;;;;;482678;246;1166;-58
2022/02/06 06:50:03;;;;;;;;;;;21.60;25.90;;;;;;482648;246;957;-58
2022/02/06 06:52:02;;;;;;;;;;;21.60;25.90;;;;;;482533;246;2084;-59
2022/02/06 06:54:11;;;;;;;;;;;21.60;25.90;;;;;;482815;246;945;-59
2022/02/06 06:56:11;;;;;;;;;;;21.60;25.90;;;;;;482252;247;2300;-59
2022/02/06 06:58:12;;;;;;;;;;;21.60;25.90;;;;;;482409;246;2164;-58
2022/02/06 07:00:20;;;;;;;;;;;21.70;25.90;;;;;;482367;247;1915;-58
2022/02/06 07:02:18;;;;;;;;;;;21.70;25.90;;;;;;481862;247;2073;-59
2022/02/06 07:04:18;;;;;;;;;;;21.60;25.90;;;;;;482662;247;2149;-59
2022/02/06 07:06:19;;;;;;;;;;;21.70;25.80;;;;;;482615;246;1429;-59
2022/02/06 07:08:21;;;;;;;;;;;21.60;25.90;;;;;;482717;246;1198;-59
2022/02/06 07:10:22;;;;;;;;;;;21.60;25.90;;;;;;482666;246;1070;-59
2022/02/06 07:12:23;;;;;;;;;;;21.60;26.00;;;;;;482601;246;1197;-59
2022/02/06 07:14:25;;;;;;;;;;;21.60;26.00;;;;;;482662;246;1188;-59
2022/02/06 07:16:26;;;;;;;;;;;21.50;26.00;;;;;;482489;246;1218;-58
2022/02/06 07:18:27;;;;;;;;;;;21.60;26.00;;;;;;482634;246;1235;-59
2022/02/06 07:20:30;;;;;;;;;;;21.60;26.00;;;;;;482702;246;963;-58
2022/02/06 07:22:34;;;;;;;;;;;21.50;26.00;;;;;;482559;247;1400;-58
2022/02/06 07:24:34;;;;;;;;;;;21.50;26.00;;;;;;482530;247;2185;-59
2022/02/06 07:26:34;;;;;;;;;;;21.60;26.00;;;;;;482580;246;1374;-59
2022/02/06 07:28:35;;;;;;;;;;;21.60;26.00;;;;;;482673;246;1572;-59
2022/02/06 07:30:37;;;;;;;;;;;21.60;26.00;;;;;;482674;246;1208;-60
2022/02/06 07:32:39;;;;;;;;;;;21.60;26.00;;;;;;482756;246;1191;-59
2022/02/06 07:34:39;;;;;;;;;;;21.60;25.90;;;;;;482592;247;1757;-58
2022/02/06 07:36:41;;;;;;;;;;;21.60;25.90;;;;;;482555;246;1312;-59
2022/02/06 07:38:42;;;;;;;;;;;21.80;25.70;;;;;;482685;246;966;-60
2022/02/06 07:40:43;;;;;;;;;;;21.70;25.80;;;;;;482666;246;1135;-58
2022/02/06 07:42:45;;;;;;;;;;;21.70;25.80;;;;;;482567;246;1184;-58
2022/02/06 07:44:48;;;;;;;;;;;21.70;25.80;;;;;;482694;246;2138;-58
2022/02/06 07:46:49;;;;;;;;;;;21.70;25.80;;;;;;482628;246;1864;-59
2022/02/06 07:48:49;;;;;;;;;;;21.80;25.70;;;;;;482563;246;1976;-58
2022/02/06 07:50:50;;;;;;;;;;;21.70;25.70;;;;;;482617;246;1216;-59
2022/02/06 07:52:52;;;;;;;;;;;21.80;25.80;;;;;;482627;246;1026;-59
2022/02/06 07:54:53;;;;;;;;;;;21.80;25.80;;;;;;482691;246;1059;-58
2022/02/06 07:56:54;;;;;;;;;;;21.80;25.70;;;;;;482733;246;1474;-59
2022/02/06 07:58:56;;;;;;;;;;;21.80;25.70;;;;;;482677;246;1025;-59
2022/02/06 08:00:57;;;;;;;;;;;21.90;25.70;;;;;;482698;246;1138;-58
2022/02/06 08:02:58;;;;;;;;;;;21.90;25.60;;;;;;482683;246;1096;-59
2022/02/06 08:05:01;;;;;;;;;;;22.00;25.60;;;;;;482667;246;2149;-59
2022/02/06 08:07:01;;;;;;;;;;;21.90;25.60;;;;;;482521;246;2251;-59
2022/02/06 08:09:03;;;;;;;;;;;22.00;25.60;;;;;;482719;246;1113;-59
2022/02/06 08:11:04;;;;;;;;;;;21.90;25.60;;;;;;482649;246;1513;-59
2022/02/06 08:13:09;;;;;;;;;;;21.90;25.60;;;;;;482670;246;1112;-59
2022/02/06 08:15:08;;;;;;;;;;;21.90;25.60;;;;;;482537;246;1331;-59
2022/02/06 08:17:09;;;;;;;;;;;22.00;25.60;;;;;;482554;246;1121;-58
2022/02/06 08:19:10;;;;;;;;;;;21.90;25.60;;;;;;482661;246;1144;-59
2022/02/06 08:21:12;;;;;;;;;;;22.00;25.60;;;;;;482628;246;1352;-59
2022/02/06 08:23:14;;;;;;;;;;;22.00;25.60;;;;;;482730;246;976;-59
2022/02/06 08:25:15;;;;;;;;;;;22.00;25.60;;;;;;482606;246;2180;-58
2022/02/06 08:27:16;;;;;;;;;;;22.00;25.60;;;;;;482630;246;1229;-59
2022/02/06 08:29:18;;;;;;;;;;;22.00;25.50;;;;;;482703;246;936;-59
2022/02/06 08:31:19;;;;;;;;;;;22.10;25.50;;;;;;482624;246;1199;-59
2022/02/06 08:33:20;;;;;;;;;;;22.10;25.40;;;;;;482626;246;1121;-59
2022/02/06 08:35:22;;;;;;;;;;;22.00;25.60;;;;;;482707;246;1209;-59
2022/02/06 08:37:23;;;;;;;;;;;22.10;25.50;;;;;;482703;246;1403;-58
2022/02/06 08:39:25;;;;;;;;;;;22.00;25.60;;;;;;482694;246;940;-59
2022/02/06 08:41:26;;;;;;;;;;;22.10;25.50;;;;;;482638;246;1200;-59
2022/02/06 08:43:27;;;;;;;;;;;22.10;25.50;;;;;;482675;246;1089;-58
2022/02/06 08:45:29;;;;;;;;;;;22.20;25.40;;;;;;482621;246;2133;-59
2022/02/06 08:47:30;;;;;;;;;;;22.20;25.40;;;;;;482500;247;2194;-59
2022/02/06 08:49:31;;;;;;;;;;;22.20;25.40;;;;;;482629;246;1134;-59
2022/02/06 08:51:33;;;;;;;;;;;22.30;25.40;;;;;;482578;246;1204;-59
2022/02/06 08:53:34;;;;;;;;;;;22.30;25.30;;;;;;482678;246;1089;-59
2022/02/06 08:55:35;;;;;;;;;;;22.30;25.30;;;;;;482649;246;1017;-59
2022/02/06 08:57:43;;;;;;;;;;;22.40;25.30;;;;;;482652;246;1382;-59
2022/02/06 08:59:38;;;;;;;;;;;22.40;25.30;;;;;;482323;247;2123;-59
2022/02/06 09:01:39;;;;;;;;;;;22.40;25.30;;;;;;482588;246;1199;-59
2022/02/06 09:03:41;;;;;;;;;;;22.40;25.20;;;;;;482639;246;1164;-59
2022/02/06 09:05:43;;;;;;;;;;;22.50;25.10;;;;;;482619;246;2193;-59
2022/02/06 09:07:43;;;;;;;;;;;22.50;25.20;;;;;;482586;247;1946;-59
2022/02/06 09:09:47;;;;;;;;;;;22.50;25.10;;;;;;482753;246;1102;-59
2022/02/06 09:11:46;;;;;;;;;;;22.60;25.20;;;;;;482464;247;1908;-59
2022/02/06 09:13:47;;;;;;;;;;;22.50;25.20;;;;;;482668;246;1053;-59
2022/02/06 09:15:48;;;;;;;;;;;22.50;25.20;;;;;;482602;246;1246;-59
2022/02/06 09:17:50;;;;;;;;;;;22.50;25.20;;;;;;482597;246;1212;-59
2022/02/06 09:19:51;;;;;;;;;;;22.40;25.30;;;;;;482652;246;992;-58
2022/02/06 09:21:52;;;;;;;;;;;22.50;25.10;;;;;;482601;246;1333;-59
2022/02/06 09:23:54;;;;;;;;;;;22.50;25.10;;;;;;482701;246;1059;-59
2022/02/06 09:25:55;;;;;;;;;;;22.50;25.10;;;;;;482635;246;2110;-59
2022/02/06 09:27:56;;;;;;;;;;;22.60;25.10;;;;;;482630;246;1097;-59
2022/02/06 09:29:58;;;;;;;;;;;22.60;25.10;;;;;;482625;246;1072;-59
2022/02/06 09:36:10;;;;;;;;;;;22.70;25.00;;;;;;482737;246;1243;-59
2022/02/06 09:38:11;;;;;;;;;;;22.70;25.00;;;;;;482686;246;1063;-59
2022/02/06 09:40:14;;;;;;;;;;;22.60;25.20;;;;;;482711;246;979;-59
2022/02/06 09:42:14;;;;;;;;;;;22.70;25.00;;;;;;482550;246;2089;-59
2022/02/06 09:44:15;;;;;;;;;;;22.70;25.00;;;;;;482691;246;1061;-59
2022/02/06 09:46:16;;;;;;;;;;;22.70;24.90;;;;;;482563;246;2188;-59
2022/02/06 09:48:18;;;;;;;;;;;22.70;24.90;;;;;;482683;246;1092;-59
2022/02/06 09:50:19;;;;;;;;;;;22.80;24.90;;;;;;482680;246;959;-59
2022/02/06 09:52:25;;;;;;;;;;;22.80;24.80;;;;;;482582;246;1142;-59
2022/02/06 09:54:22;;;;;;;;;;;22.70;24.90;;;;;;482434;246;1815;-59
2022/02/06 09:56:23;;;;;;;;;;;22.70;25.00;;;;;;482614;246;1240;-59
2022/02/06 09:58:56;;;;;;;;;;;22.80;24.90;;;;;;482623;246;1033;-59
2022/02/06 10:00:30;;;;;;;;;;;22.90;24.80;;;;;;481442;247;1362;-59
2022/02/06 10:02:33;;;;;;;;;;;22.80;24.90;;;;;;482606;246;1273;-59
2022/02/06 10:04:34;;;;;;;;;;;22.80;24.90;;;;;;482783;246;1990;-59
2022/02/06 10:06:34;;;;;;;;;;;22.80;24.80;;;;;;482633;246;2196;-58
2022/02/06 10:08:38;;;;;;;;;;;22.90;24.90;;;;;;482652;246;1142;-59
2022/02/06 10:10:37;;;;;;;;;;;22.80;24.80;;;;;;482648;246;2145;-58
2022/02/06 10:12:38;;;;;;;;;;;22.80;24.90;;;;;;482607;246;1076;-59
2022/02/06 10:14:40;;;;;;;;;;;22.90;24.80;;;;;;482758;246;1047;-59
2022/02/06 10:16:41;;;;;;;;;;;22.90;24.90;;;;;;482649;246;1326;-58
2022/02/06 10:18:43;;;;;;;;;;;22.80;24.90;;;;;;482701;246;1102;-59
2022/02/06 10:20:45;;;;;;;;;;;22.90;24.90;;;;;;482582;246;1153;-59
2022/02/06 10:22:52;;;;;;;;;;;22.90;24.90;;;;;;482521;247;2138;-58
2022/02/06 10:24:49;;;;;;;;;;;23.00;24.80;;;;;;482497;246;1844;-59
2022/02/06 10:26:53;;;;;;;;;;;23.10;24.80;;;;;;482594;243;2192;-59
2022/02/06 10:28:59;;;;;;;;;;;23.10;24.80;;;;;;482636;246;2018;-59
2022/02/06 10:30:55;;;;;;;;;;;23.10;24.70;;;;;;482314;247;2044;-59
2022/02/06 10:32:56;;;;;;;;;;;23.10;24.80;;;;;;482709;246;1189;-59
2022/02/06 10:34:57;;;;;;;;;;;23.10;24.80;;;;;;482681;246;965;-59
2022/02/06 10:36:59;;;;;;;;;;;23.30;24.60;;;;;;482726;246;1347;-58
2022/02/06 10:39:00;;;;;;;;;;;23.10;24.80;;;;;;482727;246;961;-58
2022/02/06 10:41:01;;;;;;;;;;;23.20;24.70;;;;;;482636;246;1247;-58
2022/02/06 10:43:03;;;;;;;;;;;23.30;24.60;;;;;;482671;246;1157;-59
2022/02/06 10:45:04;;;;;;;;;;;23.30;24.60;;;;;;482701;246;1051;-59
2022/02/06 10:47:05;;;;;;;;;;;23.30;24.70;;;;;;482619;246;2126;-59
2022/02/06 10:49:07;;;;;;;;;;;23.30;24.60;;;;;;482726;246;978;-59
2022/02/06 10:51:08;;;;;;;;;;;23.30;24.60;;;;;;482674;246;1276;-59
2022/02/06 10:53:09;;;;;;;;;;;23.20;24.70;;;;;;482653;246;1228;-59
2022/02/06 10:55:11;;;;;;;;;;;23.30;24.60;;;;;;482702;246;1017;-59
2022/02/06 10:57:12;;;;;;;;;;;23.40;24.60;;;;;;482620;246;1185;-59
2022/02/06 10:59:13;;;;;;;;;;;23.50;24.50;;;;;;482698;246;1078;-59
2022/02/06 11:01:15;;;;;;;;;;;23.40;24.50;;;;;;482602;246;1390;-59
2022/02/06 11:03:21;;;;;;;;;;;23.50;24.50;;;;;;482661;246;1188;-59
2022/02/06 11:05:19;;;;;;;;;;;23.40;24.60;;;;;;482350;247;1495;-59
2022/02/06 11:07:19;;;;;;;;;;;23.40;24.60;;;;;;482502;247;2236;-59
2022/02/06 11:09:20;;;;;;;;;;;23.50;24.40;;;;;;482733;246;1059;-59
2022/02/06 11:11:22;;;;;;;;;;;23.60;24.50;;;;;;482652;246;1197;-59
2022/02/06 11:13:24;;;;;;;;;;;23.50;24.50;;;;;;482731;246;1124;-59
2022/02/06 11:15:26;;;;;;;;;;;23.70;24.40;;;;;;482655;246;1147;-59
2022/02/06 11:17:29;;;;;;;;;;;23.60;24.50;;;;;;482621;246;1139;-60
2022/02/06 11:19:28;;;;;;;;;;;23.70;24.40;;;;;;482517;246;1926;-59
2022/02/06 11:21:29;;;;;;;;;;;23.70;24.40;;;;;;482590;246;1209;-59
2022/02/06 11:23:30;;;;;;;;;;;23.80;24.30;;;;;;482703;246;1171;-58
2022/02/06 11:25:32;;;;;;;;;;;23.70;24.30;;;;;;482643;246;2958;-59
2022/02/06 11:27:33;;;;;;;;;;;23.70;24.40;;;;;;482670;246;1320;-59
2022/02/06 11:29:34;;;;;;;;;;;23.80;24.20;;;;;;482675;246;1031;-59
2022/02/06 11:31:36;;;;;;;;;;;23.90;24.20;;;;;;482625;246;1211;-58
2022/02/06 11:33:37;;;;;;;;;;;23.90;24.30;;;;;;482606;246;1125;-59
2022/02/06 11:35:39;;;;;;;;;;;23.90;24.30;;;;;;482600;246;1218;-59
2022/02/06 11:44:37;;;;;;;;;;;23.90;24.20;;;;;;482249;247;1071;-59
2022/02/06 11:46:39;;;;;;;;;;;24.00;24.10;;;;;;482114;246;2126;-59
2022/02/06 11:48:40;;;;;;;;;;;24.10;24.00;;;;;;482333;246;1043;-59
2022/02/06 11:50:48;;;;;;;;;;;24.20;24.00;;;;;;482309;246;1288;-59
2022/02/06 11:52:44;;;;;;;;;;;24.00;24.00;;;;;;481920;247;1518;-59
2022/02/06 11:54:45;;;;;;;;;;;24.10;24.00;;;;;;482306;246;1040;-58
2022/02/06 11:56:47;;;;;;;;;;;24.10;23.90;;;;;;482276;246;1132;-59
2022/02/06 11:58:48;;;;;;;;;;;24.20;23.80;;;;;;482347;246;1061;-59
2022/02/06 12:00:49;;;;;;;;;;;24.30;23.80;;;;;;482242;246;981;-59
2022/02/06 12:02:51;;;;;;;;;;;24.30;23.80;;;;;;482236;246;1081;-59
2022/02/06 12:04:52;;;;;;;;;;;24.30;23.80;;;;;;482306;246;961;-59
2022/02/06 12:06:53;;;;;;;;;;;24.20;23.80;;;;;;482315;246;2130;-59
2022/02/06 12:08:55;;;;;;;;;;;24.30;23.80;;;;;;482291;246;1156;-59
2022/02/06 12:10:56;;;;;;;;;;;24.10;23.80;;;;;;482197;246;1061;-59
2022/02/06 12:12:57;;;;;;;;;;;24.20;23.80;;;;;;482189;246;1358;-59
2022/02/06 12:14:58;;;;;;;;;;;24.30;23.70;;;;;;482293;246;1080;-59
2022/02/06 12:17:07;;;;;;;;;;;24.30;23.70;;;;;;482203;246;1149;-59
2022/02/06 12:19:01;;;;;;;;;;;24.30;23.70;;;;;;481864;247;1773;-59
2022/02/06 12:21:02;;;;;;;;;;;24.40;23.60;;;;;;482204;246;1158;-59
2022/02/06 12:23:04;;;;;;;;;;;24.30;23.70;;;;;;482185;246;1217;-58
2022/02/06 12:25:05;;;;;;;;;;;24.30;23.70;;;;;;482289;246;1089;-59
2022/02/06 12:27:06;;;;;;;;;;;24.30;23.60;;;;;;482195;246;2225;-59
2022/02/06 12:29:09;;;;;;;;;;;24.50;23.50;;;;;;482349;246;1018;-59
2022/02/06 12:31:09;;;;;;;;;;;24.40;23.50;;;;;;482089;247;2203;-58
2022/02/06 12:33:10;;;;;;;;;;;24.40;23.60;;;;;;482226;246;1168;-59
2022/02/06 12:37:32;;;;;;;;;;;24.50;23.40;;;;;;482228;247;1201;-60
2022/02/06 12:39:32;;;;;;;;;;;24.40;23.50;;;;;;482247;246;2405;-59
2022/02/06 12:41:34;;;;;;;;;;;24.50;23.40;;;;;;482229;246;1254;-59
2022/02/06 12:43:36;;;;;;;;;;;24.50;23.40;;;;;;482250;246;995;-59
2022/02/06 12:45:36;;;;;;;;;;;24.50;23.40;;;;;;482221;246;2294;-59
2022/02/06 12:47:38;;;;;;;;;;;24.50;23.50;;;;;;482169;246;2192;-59
2022/02/06 12:49:41;;;;;;;;;;;24.50;23.50;;;;;;482264;246;1134;-59
2022/02/06 12:51:40;;;;;;;;;;;24.40;23.50;;;;;;482133;247;1954;-59
2022/02/06 12:53:42;;;;;;;;;;;24.40;23.50;;;;;;482309;246;1317;-59
2022/02/06 12:55:44;;;;;;;;;;;24.50;23.50;;;;;;482259;246;1196;-58
2022/02/06 12:57:45;;;;;;;;;;;24.50;23.40;;;;;;482246;246;1175;-59
2022/02/06 12:59:46;;;;;;;;;;;24.60;23.40;;;;;;482243;246;974;-59
2022/02/06 13:01:48;;;;;;;;;;;24.60;23.40;;;;;;482153;246;1244;-59
2022/02/06 13:03:49;;;;;;;;;;;24.40;23.70;;;;;;482172;246;2230;-59
2022/02/06 13:05:50;;;;;;;;;;;24.40;23.50;;;;;;482213;246;1160;-59
2022/02/06 13:07:52;;;;;;;;;;;24.40;23.70;;;;;;482196;246;2189;-59
2022/02/06 13:10:01;;;;;;;;;;;24.40;23.70;;;;;;482315;246;1213;-59
2022/02/06 13:12:00;;;;;;;;;;;24.40;23.70;;;;;;481661;247;1832;-59